This is the latest recevied weather packets stored in our database for station/object SQ7RAF-15. If no packets are shown the sender has not sent any weather packets the latest 1 day(s).
| Time | Temp. | Humidity | Pressure | Rain* | Wind** | Luminosity | Snow |
|---|---|---|---|---|---|---|---|
| 1778044248 | 17.22° C | 68% | 1004.5 hPa | 0 mm | - | 156 W/m² | - |
| 1778043641 | 16.67° C | 69% | 1004.4 hPa | 0 mm | - | 135 W/m² | - |
| 1778043032 | 15.56° C | 71% | 1004.6 hPa | 0 mm | - | 105 W/m² | - |
| 1778042425 | 15° C | 72% | 1004.6 hPa | 0 mm | - | 69 W/m² | - |
| 1778041850 | 14.44° C | 74% | 1004.7 hPa | 0 mm | - | 69 W/m² | - |
| 1778041241 | 12.78° C | 78% | 1004.7 hPa | 0 mm | - | 41 W/m² | - |
| 1778040026 | 10° C | 88% | 1004.6 hPa | 0 mm | - | 17 W/m² | - |
| 1778039128 | 8.89° C | 92% | 1004.6 hPa | 0 mm | - | 12 W/m² | - |
| 1778038840 | 8.89° C | 92% | 1004.6 hPa | 0 mm | - | 10 W/m² | - |
| 1778038520 | 8.89° C | 93% | 1004.6 hPa | 0 mm | - | 8 W/m² | - |
| 1778037624 | 8.89° C | 93% | 1004.7 hPa | 0 mm | - | 3 W/m² | - |
| 1778037337 | 8.89° C | 93% | 1004.7 hPa | 0 mm | - | 1 W/m² | - |
| 1778037048 | 8.89° C | 93% | 1004.8 hPa | 0 mm | - | 1 W/m² | - |
| 1778036729 | 8.89° C | 93% | 1004.7 hPa | 0 mm | - | 0 W/m² | - |
| 1778036121 | 8.89° C | 93% | 1004.9 hPa | 0 mm | - | 0 W/m² | - |
| 1778035833 | 8.89° C | 93% | 1004.8 hPa | 0 mm | - | 0 W/m² | - |
| 1778035545 | 8.89° C | 93% | 1004.9 hPa | 0 mm | - | 0 W/m² | - |
| 1778035225 | 8.89° C | 93% | 1004.7 hPa | 0 mm | - | 0 W/m² | - |
| 1778034648 | 9.44° C | 93% | 1004.8 hPa | 0 mm | - | 0 W/m² | - |
| 1778034328 | 9.44° C | 93% | 1004.8 hPa | 0 mm | - | 0 W/m² | - |
| 1778034024 | 9.44° C | 93% | 1004.8 hPa | 0 mm | - | 0 W/m² | - |
| 1778033449 | 9.44° C | 94% | 1005 hPa | 0 mm | - | 0 W/m² | - |
| 1778033144 | 9.44° C | 94% | 1005 hPa | 0 mm | - | 0 W/m² | - |
| 1778032537 | 9.44° C | 94% | 1005.1 hPa | 0 mm | - | 0 W/m² | - |
| 1778032248 | 9.44° C | 94% | 1005 hPa | 0 mm | - | 0 W/m² | - |
* Rain latest hour (hover to see other rain measurements)
** Current wind speed in m/s (hover to see current wind gust speed)